Terminal Aerodrome Forecast
Issued by NWS Newport/Morehead City, NC

Home | Current Version | Previous Version | Graphics & Text | Print | Product List | Glossary On
Versions: 1 2 3 4 5 6 7 8 9 10 11 12 13 14 15
000
FTUS42 KMHX 232329
TAFEWN
TAF
KEWN 232329Z 2400/2424 10010G20KT P6SM VCSH OVC200
     FM240400 11015G20KT 6SM -RA OVC025
     FM240900 11015G25KT 4SM RA OVC008
     FM241300 11015G25KT 2SM +SHRA OVC008
     FM241800 12015G25KT 4SM +SHRA OVC005
     FM242100 14010KT 4SM -SHRA BKN011
     FM242300 15010KT P6SM BKN011=

USA.gov is the U.S. government's official web portal to all federal, state and local government web resources and services.